CYQD

Details ICAO CYQD (YQD)
Name THE PAS
Region Canada
Timezone America/Winnipeg (UTC-6.0)
Plans Departing 12
Arriving 6
Stats Elevation 887 ft / 270 m (AMSL)
Location 53.971387° -101.091112°
Runways 1
Magnetic Variation 6.133° E
Sunrise 2017-12-11 14:54:48 UTC / 2017-12-11 08:54:48 Local
Sunset 2017-12-11 22:23:36 UTC / 2017-12-11 16:23:36 Local
Advertisement - Login to hide

Runways

ID Width Length Bearing (true) Bearing (mag) Surface Threshold Offset Overrun Length
13 150 ft / 46 m 5,889 ft / 1,795 m 133.44° 127.31° Asphalt 0 ft / 0 m 0 ft / 0 m
31 150 ft / 46 m 5,889 ft / 1,795 m 313.45° 307.32° Asphalt 0 ft / 0 m 0 ft / 0 m

Map

Weather


0- 5 10 15 20 25 30 35+ Temperature / ° C

Clouds and Precipitation
Forecast for 2017-12-12 00:00 UTC. Updated 2 hours ago

Ground ~20,000 ft ~40,000 ft Winds

METAR

CYQD 120100Z 14004KT 15SM OVC012 M12/M14 A3022 RMK SC8 SLP261

TAF

TAF TAF CYQD 120038Z 1201/1213 VRB03KT P6SM OVC006 TEMPO 1201/1204 OVC015 FM120400 14006KT 4SM -SN OVC006 TEMPO 1204/1213 6SM -SN OVC012 PROB30 1204/1213 5SM -FZDZ BR RMK NXT FCST BY 120700Z

Frequencies

Tower 122.20 MHz MF WINNIPEG RDO
Warning: Do not use this data for real-world aviation or navigation. No guarantee of current accuracy is given.